createdAt,value
2023-01-10T00:00:34.536Z,70.30
2023-01-10T00:02:37.565Z,69.76
2023-01-10T00:04:40.522Z,69.53
2023-01-10T00:06:43.409Z,69.43
2023-01-10T00:08:47.644Z,69.35
2023-01-10T00:10:50.388Z,69.63
2023-01-10T00:13:24.987Z,69.53
2023-01-10T00:15:28.054Z,68.91
2023-01-10T00:17:30.997Z,68.84
2023-01-10T00:19:33.831Z,69.42
2023-01-10T00:21:36.893Z,68.94
2023-01-10T00:23:39.742Z,69.22
2023-01-10T00:25:43.865Z,68.93
2023-01-10T00:27:49.336Z,68.93
2023-01-10T00:29:53.782Z,69.47
2023-01-10T00:31:57.101Z,69.35
2023-01-10T00:33:59.886Z,68.90
2023-01-10T00:36:04.163Z,69.48
2023-01-10T00:38:07.373Z,69.08
2023-01-10T00:40:13.665Z,69.50
2023-01-10T00:42:35.576Z,69.19
2023-01-10T00:44:38.370Z,68.77
2023-01-10T00:46:41.213Z,68.50
2023-01-10T00:48:44.011Z,68.73
2023-01-10T00:50:47.224Z,68.97
2023-01-10T00:52:50.102Z,68.55
2023-01-10T00:54:52.926Z,68.58
2023-01-10T00:56:55.683Z,68.05
2023-01-10T00:58:59.878Z,68.51
2023-01-10T01:01:04.649Z,68.47
2023-01-10T01:03:07.925Z,68.10
2023-01-10T01:05:10.904Z,68.46
2023-01-10T01:07:14.091Z,67.73
2023-01-10T01:09:17.023Z,68.13
2023-01-10T01:11:19.861Z,68.10
2023-01-10T01:13:23.222Z,68.07
2023-01-10T01:15:28.412Z,67.66
2023-01-10T01:17:31.215Z,67.72
2023-01-10T01:19:33.999Z,67.46
2023-01-10T01:21:36.735Z,67.58
2023-01-10T01:23:39.492Z,67.86
2023-01-10T01:25:42.472Z,67.50
2023-01-10T01:27:45.322Z,67.30
2023-01-10T01:29:48.061Z,67.62
2023-01-10T01:31:52.249Z,67.92
2023-01-10T01:33:55.111Z,67.62
2023-01-10T01:35:57.978Z,67.65
2023-01-10T01:38:01.046Z,67.60
2023-01-10T01:40:04.156Z,67.64
2023-01-10T01:42:07.778Z,68.28
2023-01-10T01:44:16.504Z,67.57
2023-01-10T01:46:19.458Z,67.98
2023-01-10T01:48:31.236Z,67.71
2023-01-10T01:50:39.541Z,67.99
2023-01-10T01:52:42.427Z,67.91
2023-01-10T01:54:45.292Z,68.70
2023-01-10T01:56:52.603Z,68.46
2023-01-10T01:58:59.287Z,68.99
2023-01-10T02:01:02.338Z,69.03
2023-01-10T02:03:06.717Z,68.73
2023-01-10T02:05:13.940Z,68.72
2023-01-10T02:07:16.833Z,69.15
2023-01-10T02:09:25.811Z,68.91
2023-01-10T02:11:30.468Z,69.28
2023-01-10T02:13:35.125Z,69.23
2023-01-10T02:15:38.086Z,68.83
2023-01-10T02:17:41.193Z,68.98
2023-01-10T02:19:52.582Z,69.04
2023-01-10T02:22:46.241Z,68.68
2023-01-10T02:25:19.647Z,68.19
2023-01-10T02:27:27.415Z,67.77
2023-01-10T02:30:15.216Z,67.01
2023-01-10T02:32:47.789Z,66.67
2023-01-10T02:35:09.271Z,66.39
2023-01-10T02:37:16.490Z,66.59
2023-01-10T02:39:27.654Z,66.22
2023-01-10T02:41:36.498Z,66.54
2023-01-10T02:43:43.663Z,65.71
2023-01-10T02:45:51.370Z,66.02
2023-01-10T02:47:56.916Z,66.11
2023-01-10T02:50:17.612Z,65.53
2023-01-10T02:52:24.508Z,65.37
2023-01-10T02:54:30.914Z,66.09
2023-01-10T02:57:18.049Z,65.65
2023-01-10T02:59:53.011Z,65.69
2023-01-10T03:02:01.352Z,65.63
2023-01-10T03:04:13.787Z,65.69
2023-01-10T03:06:28.693Z,65.29
2023-01-10T03:08:37.837Z,65.78
2023-01-10T03:10:46.194Z,64.84
2023-01-10T03:12:52.746Z,65.52
2023-01-10T03:14:58.256Z,66.06
2023-01-10T03:17:04.980Z,66.06
2023-01-10T03:19:12.505Z,65.81
2023-01-10T03:21:19.725Z,66.05
2023-01-10T03:23:24.302Z,66.58
2023-01-10T03:25:34.172Z,66.11
2023-01-10T03:27:45.543Z,66.55
2023-01-10T03:29:55.569Z,66.41
2023-01-10T03:32:03.941Z,66.92
2023-01-10T03:34:07.230Z,67.23
2023-01-10T03:36:20.804Z,67.06
2023-01-10T03:38:31.325Z,66.79
2023-01-10T03:40:42.184Z,67.39
2023-01-10T03:43:07.618Z,67.30
2023-01-10T03:45:16.137Z,67.32
2023-01-10T03:47:27.901Z,67.14
2023-01-10T03:49:32.586Z,67.29
2023-01-10T03:51:38.474Z,67.17
2023-01-10T03:53:41.336Z,66.92
2023-01-10T03:55:46.280Z,67.29
2023-01-10T03:57:48.967Z,67.54
2023-01-10T03:59:54.040Z,68.08
2023-01-10T04:01:57.403Z,68.12
2023-01-10T04:04:00.337Z,67.91
2023-01-10T04:06:04.665Z,68.03
2023-01-10T04:08:08.846Z,68.16
2023-01-10T04:10:12.582Z,68.57
2023-01-10T04:12:15.733Z,68.84
2023-01-10T04:14:18.510Z,68.85
2023-01-10T04:16:21.422Z,69.00
2023-01-10T04:18:24.303Z,68.90
2023-01-10T04:20:27.429Z,69.27
2023-01-10T04:22:30.212Z,69.36
2023-01-10T04:24:34.358Z,68.97
2023-01-10T04:26:37.285Z,69.11
2023-01-10T04:28:40.136Z,69.16
2023-01-10T04:30:42.974Z,69.43
2023-01-10T04:32:45.836Z,69.39
2023-01-10T04:34:49.712Z,69.78
2023-01-10T04:36:52.550Z,69.91
2023-01-10T04:38:55.455Z,69.85
2023-01-10T04:40:59.701Z,69.53
2023-01-10T04:43:02.777Z,69.86
2023-01-10T04:45:06.509Z,69.36
2023-01-10T04:47:09.295Z,69.37
2023-01-10T04:49:12.563Z,69.06
2023-01-10T04:51:15.349Z,69.14
2023-01-10T04:53:18.496Z,68.87
2023-01-10T04:55:21.669Z,68.49
2023-01-10T04:57:25.863Z,68.61
2023-01-10T04:59:28.741Z,68.64
2023-01-10T05:01:31.559Z,68.79
2023-01-10T05:03:34.393Z,68.79
2023-01-10T05:05:37.960Z,69.07
2023-01-10T05:07:41.423Z,68.75
2023-01-10T05:09:44.175Z,68.78
2023-01-10T05:11:46.956Z,68.75
2023-01-10T05:13:51.144Z,69.14
2023-01-10T05:15:55.016Z,69.21
2023-01-10T05:18:00.913Z,68.94
2023-01-10T05:20:03.902Z,68.89
2023-01-10T05:22:06.705Z,68.54
2023-01-10T05:24:10.144Z,68.81
2023-01-10T05:26:15.176Z,68.37
2023-01-10T05:28:17.992Z,68.74
2023-01-10T05:30:22.521Z,68.55
2023-01-10T05:32:29.354Z,68.59
2023-01-10T05:34:32.207Z,68.51
2023-01-10T05:36:34.990Z,67.95
2023-01-10T05:38:37.792Z,67.47
2023-01-10T05:40:40.535Z,67.20
2023-01-10T05:42:43.441Z,67.60
2023-01-10T05:44:46.247Z,66.79
2023-01-10T05:46:50.635Z,66.93
2023-01-10T05:48:53.699Z,67.04
2023-01-10T05:50:57.608Z,66.60
2023-01-10T05:53:04.447Z,66.66
2023-01-10T05:55:07.828Z,66.81
2023-01-10T05:57:10.653Z,66.63
2023-01-10T05:59:27.381Z,66.38
2023-01-10T06:01:30.675Z,66.47
2023-01-10T06:03:34.853Z,66.18
2023-01-10T06:05:37.663Z,66.54
2023-01-10T06:07:40.502Z,66.35
2023-01-10T06:09:43.286Z,66.13
2023-01-10T06:11:46.171Z,66.13
2023-01-10T06:13:53.730Z,66.28
2023-01-10T06:15:56.797Z,66.11
2023-01-10T06:17:59.531Z,65.66
2023-01-10T06:20:03.994Z,65.60
2023-01-10T06:22:06.830Z,66.04
2023-01-10T06:24:10.450Z,66.31
2023-01-10T06:26:13.355Z,66.37
2023-01-10T06:28:16.392Z,66.31
2023-01-10T06:30:19.340Z,66.24
2023-01-10T06:32:22.225Z,66.37
2023-01-10T06:34:25.330Z,66.86
2023-01-10T06:36:29.443Z,66.07
2023-01-10T06:38:32.223Z,66.49
2023-01-10T06:40:35.054Z,66.27
2023-01-10T06:42:38.795Z,66.77
2023-01-10T06:44:41.582Z,66.41
2023-01-10T06:46:44.858Z,66.62
2023-01-10T06:48:48.329Z,66.90
2023-01-10T06:50:51.398Z,66.60
2023-01-10T06:52:59.647Z,66.80
2023-01-10T06:55:02.476Z,67.36
2023-01-10T06:57:05.821Z,66.53
2023-01-10T06:59:09.986Z,66.56
2023-01-10T07:01:16.030Z,66.59
2023-01-10T07:03:19.173Z,66.59
2023-01-10T07:05:22.176Z,66.73
2023-01-10T07:07:25.004Z,66.34
2023-01-10T07:09:29.481Z,66.79
2023-01-10T07:11:34.239Z,67.49
2023-01-10T07:13:37.142Z,66.86
2023-01-10T07:15:39.948Z,66.56
2023-01-10T07:17:42.756Z,67.30
2023-01-10T07:19:45.563Z,67.42
2023-01-10T07:21:48.356Z,66.37
2023-01-10T07:23:52.120Z,66.52
2023-01-10T07:25:56.299Z,66.68
2023-01-10T07:27:59.094Z,67.39
2023-01-10T07:30:02.032Z,67.85
2023-01-10T07:32:05.143Z,67.61
2023-01-10T07:34:07.999Z,67.45
2023-01-10T07:36:11.245Z,68.19
2023-01-10T07:38:14.009Z,68.14
2023-01-10T07:40:16.945Z,68.17
2023-01-10T07:42:21.051Z,67.77
2023-01-10T07:44:24.116Z,67.85
2023-01-10T07:46:26.974Z,67.68
2023-01-10T07:48:30.228Z,68.27
2023-01-10T07:50:35.455Z,68.05
2023-01-10T07:52:38.482Z,67.24
2023-01-10T07:54:41.331Z,67.31
2023-01-10T07:56:44.572Z,67.34
2023-01-10T07:58:48.765Z,67.67
2023-01-10T08:00:51.636Z,67.32
2023-01-10T08:02:55.185Z,67.28
2023-01-10T08:04:58.184Z,67.81
2023-01-10T08:07:00.966Z,67.38
2023-01-10T08:09:05.815Z,67.79
2023-01-10T08:11:08.677Z,67.76
2023-01-10T08:13:18.867Z,67.76
2023-01-10T08:15:23.363Z,67.85
2023-01-10T08:17:26.650Z,67.83
2023-01-10T08:19:30.521Z,67.77
2023-01-10T08:21:33.472Z,66.98
2023-01-10T08:23:36.685Z,67.14
2023-01-10T08:25:39.710Z,67.56
2023-01-10T08:27:42.629Z,67.14
2023-01-10T08:29:45.603Z,67.20
2023-01-10T08:31:49.779Z,67.81
2023-01-10T08:33:52.610Z,68.02
2023-01-10T08:35:55.371Z,68.09
2023-01-10T08:38:00.592Z,67.93
2023-01-10T08:40:03.452Z,68.00
2023-01-10T08:42:06.389Z,68.32
2023-01-10T08:44:11.519Z,68.17
2023-01-10T08:46:14.354Z,67.78
2023-01-10T08:48:18.782Z,67.39
2023-01-10T08:50:21.760Z,68.16
2023-01-10T08:52:24.574Z,67.92
2023-01-10T08:54:27.317Z,68.08
2023-01-10T08:56:30.590Z,68.57
2023-01-10T08:58:33.556Z,68.96
2023-01-10T09:00:36.385Z,68.44
2023-01-10T09:02:41.157Z,67.93
2023-01-10T09:04:45.252Z,68.21
2023-01-10T09:06:47.984Z,68.45
2023-01-10T09:08:50.836Z,68.26
2023-01-10T09:10:53.827Z,67.99
2023-01-10T09:12:59.864Z,68.36
2023-01-10T09:15:02.841Z,68.64
2023-01-10T09:17:05.649Z,67.93
2023-01-10T09:19:08.692Z,67.34
2023-01-10T09:21:12.789Z,66.88
2023-01-10T09:23:19.996Z,67.77
2023-01-10T09:25:23.462Z,67.32
2023-01-10T09:27:26.304Z,67.54
2023-01-10T09:29:29.090Z,67.54
2023-01-10T09:31:31.922Z,67.08
2023-01-10T09:33:45.661Z,67.27
2023-01-10T09:35:49.462Z,67.52
2023-01-10T09:37:56.592Z,67.22
2023-01-10T09:39:59.442Z,67.38
2023-01-10T09:42:15.503Z,68.00
2023-01-10T09:44:26.223Z,67.52
2023-01-10T09:46:40.755Z,67.32
2023-01-10T09:48:50.327Z,67.58
2023-01-10T09:51:10.165Z,67.52
2023-01-10T09:53:17.501Z,67.71
2023-01-10T09:55:27.052Z,67.38
2023-01-10T09:57:29.997Z,67.38
2023-01-10T09:59:38.016Z,67.14
2023-01-10T10:01:41.269Z,67.45
2023-01-10T10:03:50.555Z,67.36
2023-01-10T10:06:00.868Z,67.59
2023-01-10T10:08:18.919Z,67.44
2023-01-10T10:10:25.380Z,67.42
2023-01-10T10:12:38.514Z,67.49
2023-01-10T10:14:56.927Z,67.44
2023-01-10T10:17:11.377Z,67.52
2023-01-10T10:19:22.998Z,66.82
2023-01-10T10:21:34.658Z,66.88
2023-01-10T10:24:00.539Z,66.80
2023-01-10T10:26:05.393Z,66.92
2023-01-10T10:28:31.481Z,67.28
2023-01-10T10:30:50.004Z,67.53
2023-01-10T10:33:02.115Z,66.64
2023-01-10T10:35:14.364Z,67.24
2023-01-10T10:37:22.729Z,66.29
2023-01-10T10:39:43.033Z,66.57
2023-01-10T10:41:49.144Z,66.26
2023-01-10T10:43:55.394Z,66.53
2023-01-10T10:46:02.181Z,66.44
2023-01-10T10:48:14.130Z,66.39
2023-01-10T10:50:22.428Z,66.28
2023-01-10T10:52:28.087Z,66.13
2023-01-10T10:54:34.641Z,65.88
2023-01-10T10:56:37.498Z,65.84
2023-01-10T10:58:43.074Z,65.31
2023-01-10T11:00:46.535Z,65.53
2023-01-10T11:02:53.989Z,65.57
2023-01-10T11:05:08.397Z,66.23
2023-01-10T11:07:17.415Z,66.05
2023-01-10T11:09:24.097Z,65.74
2023-01-10T11:11:30.012Z,65.78
2023-01-10T11:13:45.033Z,65.58
2023-01-10T11:15:49.472Z,65.73
2023-01-10T11:18:06.258Z,65.82
2023-01-10T11:20:17.447Z,64.67
2023-01-10T11:22:20.479Z,64.79
2023-01-10T11:24:31.641Z,64.92
2023-01-10T11:26:40.145Z,64.78
2023-01-10T11:28:45.702Z,64.40
2023-01-10T11:30:51.766Z,64.18
2023-01-10T11:32:58.062Z,63.31
2023-01-10T11:35:03.436Z,63.83
2023-01-10T11:37:19.068Z,63.40
2023-01-10T11:39:21.966Z,64.12
2023-01-10T11:41:31.515Z,63.96
2023-01-10T11:43:37.737Z,63.74
2023-01-10T11:45:40.971Z,63.37
2023-01-10T11:47:46.311Z,63.05
2023-01-10T11:49:51.050Z,63.22
2023-01-10T11:51:59.355Z,63.35
2023-01-10T11:54:04.745Z,63.37
2023-01-10T11:56:09.963Z,62.59
2023-01-10T11:58:16.001Z,62.80
2023-01-10T12:00:20.936Z,61.72
2023-01-10T12:02:25.127Z,61.34
2023-01-10T12:04:32.321Z,61.89
2023-01-10T12:06:35.593Z,61.41
2023-01-10T12:08:42.306Z,62.29
2023-01-10T12:10:59.050Z,62.49
2023-01-10T12:13:14.608Z,62.67
2023-01-10T12:15:27.567Z,63.24
2023-01-10T12:17:32.434Z,62.29
2023-01-10T12:19:35.202Z,62.38
2023-01-10T12:21:41.280Z,62.70
2023-01-10T12:24:03.734Z,62.44
2023-01-10T12:26:12.235Z,62.29
2023-01-10T12:28:18.788Z,62.36
2023-01-10T12:30:31.080Z,62.25
2023-01-10T12:32:42.721Z,61.80
2023-01-10T12:34:50.237Z,61.93
2023-01-10T12:37:06.544Z,62.34
2023-01-10T12:39:16.431Z,62.21
2023-01-10T12:41:45.544Z,62.82
2023-01-10T12:44:14.752Z,61.89
2023-01-10T12:46:41.000Z,61.77
2023-01-10T12:48:51.742Z,62.43
2023-01-10T12:51:02.293Z,62.00
2023-01-10T12:53:12.600Z,63.02
2023-01-10T12:55:17.154Z,63.38
2023-01-10T12:57:29.213Z,62.84
2023-01-10T12:59:38.239Z,62.70
2023-01-10T13:01:44.068Z,62.96
2023-01-10T13:03:54.385Z,62.81
2023-01-10T13:05:59.293Z,62.15
2023-01-10T13:08:05.334Z,61.23
2023-01-10T13:10:09.597Z,61.90
2023-01-10T13:12:17.379Z,62.15
2023-01-10T13:14:24.697Z,62.17
2023-01-10T13:16:38.216Z,61.17
2023-01-10T13:18:58.947Z,61.17
2023-01-10T13:21:08.694Z,61.83
2023-01-10T13:23:27.137Z,61.89
2023-01-10T13:25:32.006Z,61.54
2023-01-10T13:27:36.434Z,61.91
2023-01-10T13:29:42.073Z,61.22
2023-01-10T13:31:45.589Z,61.32
2023-01-10T13:33:55.352Z,60.81
2023-01-10T13:36:08.374Z,60.50
2023-01-10T13:38:19.590Z,60.03
2023-01-10T13:40:27.330Z,60.57
2023-01-10T13:42:49.619Z,59.67
2023-01-10T13:45:16.851Z,59.78
2023-01-10T13:48:12.775Z,59.39
2023-01-10T13:50:51.940Z,60.44
2023-01-10T13:52:55.581Z,60.38
2023-01-10T13:54:59.158Z,60.64
2023-01-10T13:57:01.960Z,60.08
2023-01-10T13:59:28.911Z,60.41
2023-01-10T14:01:56.052Z,61.03
2023-01-10T14:04:00.246Z,61.18
2023-01-10T14:06:06.635Z,61.28
2023-01-10T14:08:17.964Z,60.83
2023-01-10T14:10:23.782Z,60.84
2023-01-10T14:12:33.957Z,60.52
2023-01-10T14:14:40.812Z,60.94
2023-01-10T14:16:46.723Z,60.56
2023-01-10T14:18:49.650Z,60.57
2023-01-10T14:20:58.916Z,60.77
2023-01-10T14:23:07.236Z,60.68
2023-01-10T14:25:20.042Z,61.09
2023-01-10T14:27:23.626Z,61.05
2023-01-10T14:29:30.523Z,61.06
2023-01-10T14:31:36.906Z,61.21
2023-01-10T14:33:43.875Z,59.93
2023-01-10T14:35:51.466Z,60.55
2023-01-10T14:37:57.585Z,60.50
2023-01-10T14:40:02.227Z,60.42
2023-01-10T14:42:09.430Z,60.87
2023-01-10T14:44:18.917Z,60.33
2023-01-10T14:46:25.874Z,60.42
2023-01-10T14:48:31.334Z,60.86
2023-01-10T14:50:35.066Z,61.33
2023-01-10T14:52:37.881Z,61.54
2023-01-10T14:54:40.680Z,61.19
2023-01-10T14:56:47.067Z,61.92
2023-01-10T14:58:49.890Z,61.42
2023-01-10T15:00:55.580Z,61.73
2023-01-10T15:03:01.654Z,62.27
2023-01-10T15:05:10.350Z,62.03
2023-01-10T15:07:16.568Z,61.83
2023-01-10T15:09:19.393Z,62.01
2023-01-10T15:11:22.285Z,61.60
2023-01-10T15:13:28.464Z,62.39
2023-01-10T15:15:34.229Z,62.42
2023-01-10T15:17:38.135Z,62.82
2023-01-10T15:19:41.484Z,62.00
2023-01-10T15:21:45.807Z,62.24
2023-01-10T15:23:50.034Z,61.88
2023-01-10T15:25:58.410Z,61.86
2023-01-10T15:28:02.688Z,62.67
2023-01-10T15:30:11.731Z,62.83
2023-01-10T15:32:24.221Z,63.32
2023-01-10T15:34:30.186Z,63.13
2023-01-10T15:36:33.075Z,62.55
2023-01-10T15:38:39.414Z,62.65
2023-01-10T15:40:43.566Z,63.43
2023-01-10T15:42:46.415Z,63.35
2023-01-10T15:44:53.318Z,62.46
2023-01-10T15:46:58.352Z,63.20
2023-01-10T15:49:04.402Z,62.81
2023-01-10T15:51:14.993Z,62.77
2023-01-10T15:53:17.821Z,62.71
2023-01-10T15:55:35.528Z,62.11
2023-01-10T15:57:38.392Z,61.18
2023-01-10T15:59:47.417Z,61.67
2023-01-10T16:01:55.426Z,62.02
2023-01-10T16:04:02.275Z,62.17
2023-01-10T16:06:09.626Z,62.49
2023-01-10T16:08:13.061Z,62.20
2023-01-10T16:10:21.183Z,62.15
2023-01-10T16:12:47.315Z,61.61
2023-01-10T16:14:50.063Z,61.54
2023-01-10T16:16:53.017Z,61.36
2023-01-10T16:18:55.854Z,60.97
2023-01-10T16:21:02.470Z,61.53
2023-01-10T16:23:08.816Z,62.08
2023-01-10T16:25:16.433Z,61.37
2023-01-10T16:27:19.355Z,61.39
2023-01-10T16:29:22.646Z,60.82
2023-01-10T16:31:25.544Z,61.34
2023-01-10T16:33:29.043Z,61.34
2023-01-10T16:35:31.947Z,62.17
2023-01-10T16:37:36.157Z,61.19
2023-01-10T16:39:38.959Z,61.18
2023-01-10T16:42:00.349Z,61.63
2023-01-10T16:44:03.496Z,62.07
2023-01-10T16:46:06.720Z,61.86
2023-01-10T16:48:10.763Z,62.29
2023-01-10T16:50:13.590Z,62.15
2023-01-10T16:52:16.470Z,62.16
2023-01-10T16:54:22.513Z,61.85
2023-01-10T16:56:26.742Z,62.17
2023-01-10T16:58:29.669Z,62.61
2023-01-10T17:00:32.625Z,62.42
2023-01-10T17:02:35.452Z,62.01
2023-01-10T17:04:39.854Z,62.26
2023-01-10T17:06:42.658Z,62.43
2023-01-10T17:08:45.919Z,62.84
2023-01-10T17:10:53.426Z,62.44
2023-01-10T17:12:56.363Z,62.09
2023-01-10T17:14:59.669Z,62.62
2023-01-10T17:17:05.523Z,62.85
2023-01-10T17:19:09.532Z,62.92
2023-01-10T17:21:16.204Z,63.22
2023-01-10T17:23:19.141Z,63.09
2023-01-10T17:25:22.234Z,63.30
2023-01-10T17:27:26.372Z,62.93
2023-01-10T17:29:30.235Z,62.89
2023-01-10T17:31:33.132Z,62.83
2023-01-10T17:33:36.175Z,62.22
2023-01-10T17:35:41.091Z,62.44
2023-01-10T17:37:43.742Z,62.82
2023-01-10T17:39:46.537Z,62.61
2023-01-10T17:41:49.480Z,62.74
2023-01-10T17:43:53.731Z,61.61
2023-01-10T17:45:58.612Z,61.58
2023-01-10T17:48:01.603Z,61.20
2023-01-10T17:50:05.075Z,61.55
2023-01-10T17:52:08.077Z,61.39
2023-01-10T17:54:10.858Z,60.98
2023-01-10T17:56:14.465Z,60.25
2023-01-10T17:58:18.609Z,60.52
2023-01-10T18:00:22.841Z,60.56
2023-01-10T18:02:25.851Z,60.72
2023-01-10T18:04:28.809Z,60.50
2023-01-10T18:06:31.670Z,60.53
2023-01-10T18:08:34.522Z,60.73
2023-01-10T18:10:37.213Z,60.68
2023-01-10T18:12:40.212Z,60.60
2023-01-10T18:14:43.057Z,60.57
2023-01-10T18:16:47.317Z,60.89
2023-01-10T18:18:50.511Z,60.13
2023-01-10T18:20:55.210Z,60.69
2023-01-10T18:23:15.447Z,60.93
2023-01-10T18:25:19.348Z,59.78
2023-01-10T18:27:22.327Z,59.99
2023-01-10T18:29:25.107Z,59.81
2023-01-10T18:31:27.995Z,60.16
2023-01-10T18:33:32.504Z,58.89
2023-01-10T18:35:35.364Z,59.45
2023-01-10T18:37:38.331Z,59.16
2023-01-10T18:39:43.341Z,59.06
2023-01-10T18:41:46.135Z,59.38
2023-01-10T18:43:49.265Z,59.53
2023-01-10T18:46:00.831Z,59.72
2023-01-10T18:48:05.399Z,59.83
2023-01-10T18:50:10.745Z,59.07
2023-01-10T18:52:13.576Z,59.45
2023-01-10T18:54:16.501Z,60.04
2023-01-10T18:56:19.313Z,60.50
2023-01-10T18:58:24.045Z,60.67
2023-01-10T19:00:27.215Z,60.76
2023-01-10T19:02:30.103Z,60.79
2023-01-10T19:04:33.062Z,60.98
2023-01-10T19:06:37.162Z,60.89
2023-01-10T19:08:40.620Z,60.97
2023-01-10T19:11:07.091Z,60.92
2023-01-10T19:13:07.289Z,60.79
2023-01-10T19:15:11.297Z,60.89
2023-01-10T19:17:14.129Z,60.61
2023-01-10T19:19:17.440Z,60.76
2023-01-10T19:21:20.990Z,61.09
2023-01-10T19:23:25.144Z,60.43
2023-01-10T19:25:28.111Z,60.73
2023-01-10T19:27:30.872Z,61.05
2023-01-10T19:29:34.902Z,61.76
2023-01-10T19:31:37.812Z,61.86
2023-01-10T19:33:43.014Z,61.99
2023-01-10T19:35:45.931Z,62.06
2023-01-10T19:37:48.884Z,61.78
2023-01-10T19:39:53.027Z,62.46
2023-01-10T19:41:55.866Z,62.49
2023-01-10T19:44:00.177Z,62.01
2023-01-10T19:46:06.932Z,62.50
2023-01-10T19:48:09.861Z,62.53
2023-01-10T19:50:12.616Z,63.12
2023-01-10T19:52:15.411Z,63.56
2023-01-10T19:54:18.838Z,63.43
2023-01-10T19:56:23.257Z,63.64
2023-01-10T19:58:26.273Z,63.96
2023-01-10T20:00:29.084Z,63.86
2023-01-10T20:02:32.277Z,64.18
2023-01-10T20:04:35.278Z,64.02
2023-01-10T20:06:39.953Z,64.16
2023-01-10T20:08:42.876Z,64.04
2023-01-10T20:10:45.774Z,63.29
2023-01-10T20:12:49.950Z,63.79
2023-01-10T20:14:52.773Z,64.38
2023-01-10T20:16:55.620Z,64.05
2023-01-10T20:18:58.406Z,64.22
2023-01-10T20:21:04.687Z,64.19
2023-01-10T20:23:09.166Z,64.18
2023-01-10T20:25:11.984Z,64.16
2023-01-10T20:27:14.781Z,63.17
2023-01-10T20:29:19.975Z,63.17
2023-01-10T20:31:24.404Z,63.66
2023-01-10T20:33:27.545Z,63.50
2023-01-10T20:35:30.377Z,63.83
2023-01-10T20:37:33.266Z,63.28
2023-01-10T20:39:36.143Z,63.39
2023-01-10T20:41:38.971Z,63.67
2023-01-10T20:43:42.298Z,64.06
2023-01-10T20:45:46.505Z,63.78
2023-01-10T20:47:53.153Z,63.33
2023-01-10T20:49:55.969Z,63.09
2023-01-10T20:51:58.906Z,63.21
2023-01-10T20:54:02.590Z,63.40
2023-01-10T20:56:06.924Z,63.49
2023-01-10T20:58:09.802Z,63.36
2023-01-10T21:00:13.717Z,63.27
2023-01-10T21:02:17.914Z,63.14
2023-01-10T21:04:20.816Z,63.07
2023-01-10T21:06:23.688Z,63.10
2023-01-10T21:08:29.434Z,62.78
2023-01-10T21:10:32.263Z,62.28
2023-01-10T21:12:35.685Z,62.13
2023-01-10T21:14:38.461Z,62.28
2023-01-10T21:16:41.296Z,62.32
2023-01-10T21:18:45.390Z,62.38
2023-01-10T21:20:48.368Z,61.71
2023-01-10T21:22:51.189Z,61.29
2023-01-10T21:24:54.701Z,62.02
2023-01-10T21:26:57.612Z,62.10
2023-01-10T21:29:01.855Z,62.74
2023-01-10T21:31:04.869Z,62.10
2023-01-10T21:33:08.152Z,62.53
2023-01-10T21:35:12.334Z,63.36
2023-01-10T21:37:15.461Z,62.89
2023-01-10T21:39:18.959Z,62.78
2023-01-10T21:41:35.912Z,62.58
2023-01-10T21:43:43.955Z,63.30
2023-01-10T21:45:46.789Z,63.24
2023-01-10T21:47:49.995Z,63.59
2023-01-10T21:49:52.904Z,63.77
2023-01-10T21:51:57.736Z,64.51
2023-01-10T21:54:00.600Z,64.46
2023-01-10T21:56:03.399Z,64.67
2023-01-10T21:58:06.320Z,64.63
2023-01-10T22:00:10.397Z,64.59
2023-01-10T22:02:17.612Z,64.96
2023-01-10T22:04:20.860Z,64.45
2023-01-10T22:06:23.719Z,65.02
2023-01-10T22:08:27.859Z,65.28
2023-01-10T22:10:31.121Z,65.47
2023-01-10T22:12:34.009Z,65.52
2023-01-10T22:14:37.011Z,65.89
2023-01-10T22:16:39.905Z,65.75
2023-01-10T22:18:44.771Z,65.97
2023-01-10T22:20:48.280Z,65.74
2023-01-10T22:22:51.079Z,65.49
2023-01-10T22:24:55.261Z,65.47
2023-01-10T22:26:58.248Z,66.00
2023-01-10T22:29:01.184Z,65.89
2023-01-10T22:31:04.658Z,65.72
2023-01-10T22:33:07.637Z,65.79
2023-01-10T22:35:13.627Z,65.56
2023-01-10T22:37:17.295Z,65.32
2023-01-10T22:39:20.225Z,65.27
2023-01-10T22:41:26.591Z,65.06
2023-01-10T22:43:29.381Z,64.86
2023-01-10T22:45:32.252Z,65.58
2023-01-10T22:47:35.052Z,65.66
2023-01-10T22:49:38.567Z,65.13
2023-01-10T22:51:41.517Z,65.10
2023-01-10T22:53:44.416Z,64.76
2023-01-10T22:55:47.261Z,64.86
2023-01-10T22:57:51.299Z,65.06
2023-01-10T22:59:54.141Z,64.94
2023-01-10T23:01:56.968Z,64.59
2023-01-10T23:03:59.747Z,64.41
2023-01-10T23:06:02.653Z,64.10
2023-01-10T23:08:05.775Z,64.43
2023-01-10T23:10:24.405Z,64.31
2023-01-10T23:12:31.779Z,64.23
2023-01-10T23:14:36.474Z,64.51
2023-01-10T23:16:39.390Z,64.92
2023-01-10T23:18:42.377Z,65.06
2023-01-10T23:20:48.478Z,64.68
2023-01-10T23:22:51.333Z,64.62
2023-01-10T23:24:54.331Z,65.12
2023-01-10T23:26:57.077Z,65.48
2023-01-10T23:28:59.875Z,65.20
2023-01-10T23:31:04.458Z,65.11
2023-01-10T23:33:07.326Z,64.73
2023-01-10T23:35:10.992Z,65.35
2023-01-10T23:37:13.743Z,65.42
2023-01-10T23:39:18.917Z,65.36
2023-01-10T23:41:21.944Z,65.22
2023-01-10T23:43:25.395Z,65.85
2023-01-10T23:45:28.146Z,65.27
2023-01-10T23:47:32.284Z,65.71
2023-01-10T23:49:35.371Z,65.92
2023-01-10T23:51:38.397Z,66.19
2023-01-10T23:53:41.842Z,66.10
2023-01-10T23:55:44.779Z,65.80
2023-01-10T23:57:47.556Z,65.91
2023-01-10T23:59:50.320Z,66.23
